Time;durP1;ratioP1;P1;durP2;ratioP2;P2;SDS_P1;SDS_P2;PMS_P1;PMS_P2;Temp;Humidity;BMP_temperature;BMP_pressure;BME280_temperature;BME280_humidity;BME280_pressure;Samples;Min_cycle;Max_cycle;Signal;HPM_P1;HPM_P2
2020/12/07 00:00:39;;;;;;;8.97;5.73;;;2.40;99.90;;;;;;5107531;28;20233;-77
2020/12/07 00:03:05;;;;;;;8.87;6.83;;;2.40;99.90;;;;;;5109085;28;20184;-78
2020/12/07 00:05:31;;;;;;;7.93;6.07;;;2.50;99.90;;;;;;5107314;28;20233;-79
2020/12/07 00:07:58;;;;;;;7.73;5.83;;;2.50;99.90;;;;;;5107075;28;20196;-79
2020/12/07 00:10:23;;;;;;;11.10;6.70;;;2.60;99.90;;;;;;5107425;28;20631;-78
2020/12/07 00:12:49;;;;;;;9.77;6.43;;;2.60;99.90;;;;;;5107652;27;20180;-79
2020/12/07 00:15:15;;;;;;;5.63;5.03;;;2.60;99.90;;;;;;5108377;28;20611;-79
2020/12/07 00:17:40;;;;;;;7.97;6.13;;;2.70;99.90;;;;;;5106727;28;20216;-79
2020/12/07 00:20:08;;;;;;;9.33;6.63;;;2.70;99.90;;;;;;5108483;28;20208;-80
2020/12/07 00:22:33;;;;;;;8.60;5.93;;;2.80;99.90;;;;;;5108145;28;20184;-78
2020/12/07 00:25:00;;;;;;;8.60;6.17;;;2.80;99.90;;;;;;5107817;28;20237;-79
2020/12/07 00:27:31;;;;;;;11.50;6.17;;;2.80;99.90;;;;;;5106520;28;20196;-80
2020/12/07 00:29:58;;;;;;;8.17;6.50;;;2.80;99.90;;;;;;5107155;28;20246;-80
2020/12/07 00:32:24;;;;;;;7.90;6.17;;;2.80;99.90;;;;;;5105947;28;20184;-80
2020/12/07 00:34:50;;;;;;;9.57;6.63;;;2.80;99.90;;;;;;5107783;28;20188;-79
2020/12/07 00:37:17;;;;;;;8.23;6.03;;;2.80;99.90;;;;;;5123140;27;20212;-80
2020/12/07 00:39:43;;;;;;;6.83;5.77;;;2.80;99.90;;;;;;5106538;28;20212;-77
2020/12/07 00:42:09;;;;;;;9.60;6.47;;;2.80;99.90;;;;;;5107608;28;20233;-79
2020/12/07 00:44:36;;;;;;;9.20;6.67;;;2.80;99.90;;;;;;5107823;28;20180;-80
2020/12/07 00:47:01;;;;;;;10.03;6.47;;;2.80;99.90;;;;;;5107195;28;20172;-79
2020/12/07 00:49:27;;;;;;;11.37;6.83;;;2.80;99.90;;;;;;5106591;28;20203;-78
2020/12/07 00:51:52;;;;;;;9.77;7.63;;;2.70;99.90;;;;;;5107890;28;20184;-77
2020/12/07 00:54:19;;;;;;;10.73;6.57;;;2.70;99.90;;;;;;5106470;28;20279;-79
2020/12/07 00:56:44;;;;;;;10.70;8.10;;;2.70;99.90;;;;;;5107398;28;20188;-78
2020/12/07 00:59:10;;;;;;;9.23;6.57;;;2.70;99.90;;;;;;5107525;28;20216;-78
2020/12/07 01:01:37;;;;;;;12.90;7.47;;;2.70;99.90;;;;;;5106132;28;20195;-81
2020/12/07 01:04:03;;;;;;;8.17;6.93;;;2.70;99.90;;;;;;5107352;28;20661;-79
2020/12/07 01:06:30;;;;;;;8.40;6.47;;;2.70;99.90;;;;;;5105565;28;20188;-79
2020/12/07 01:08:56;;;;;;;9.93;6.40;;;2.70;99.90;;;;;;5105462;28;20211;-80
2020/12/07 01:11:23;;;;;;;11.03;7.13;;;2.70;99.90;;;;;;5107010;28;20231;-78
2020/12/07 01:13:49;;;;;;;9.97;6.20;;;2.70;99.90;;;;;;5106515;28;20184;-79
2020/12/07 01:16:19;;;;;;;9.50;6.97;;;2.80;99.90;;;;;;5105640;28;20192;-77
2020/12/07 01:18:45;;;;;;;9.33;6.57;;;2.70;99.90;;;;;;5105569;28;20244;-79
2020/12/07 01:21:11;;;;;;;9.43;7.27;;;2.70;99.90;;;;;;5106613;28;20283;-78
2020/12/07 01:23:36;;;;;;;8.33;5.90;;;2.70;99.90;;;;;;5106584;28;20558;-80
2020/12/07 01:26:02;;;;;;;11.17;7.47;;;2.70;99.90;;;;;;5107643;28;20235;-79
2020/12/07 01:28:27;;;;;;;9.63;7.10;;;2.70;99.90;;;;;;5107928;28;20184;-79
2020/12/07 01:30:53;;;;;;;9.33;6.53;;;2.70;99.90;;;;;;5106252;28;20199;-80
2020/12/07 01:33:18;;;;;;;7.43;6.60;;;2.70;99.90;;;;;;5107665;28;20191;-79
2020/12/07 01:35:44;;;;;;;10.67;6.67;;;2.70;99.90;;;;;;5107374;28;20188;-80
2020/12/07 01:38:09;;;;;;;10.97;6.80;;;2.70;99.90;;;;;;5105598;28;20277;-80
2020/12/07 01:40:35;;;;;;;9.07;6.40;;;2.70;99.90;;;;;;5105867;28;20235;-80
2020/12/07 01:43:00;;;;;;;9.90;7.07;;;2.80;99.90;;;;;;5106539;28;20191;-80
2020/12/07 01:45:26;;;;;;;11.83;7.07;;;2.70;99.90;;;;;;5105826;28;20188;-79
2020/12/07 01:47:52;;;;;;;9.37;6.40;;;2.80;99.90;;;;;;5106376;28;20203;-80
2020/12/07 01:50:17;;;;;;;9.03;6.30;;;2.80;99.90;;;;;;5105903;28;20216;-81
2020/12/07 01:52:43;;;;;;;10.73;8.27;;;2.80;99.90;;;;;;5106496;28;20204;-80
2020/12/07 01:55:09;;;;;;;7.90;6.20;;;2.80;99.90;;;;;;5105772;28;20219;-80
2020/12/07 01:57:35;;;;;;;7.87;5.37;;;2.80;99.90;;;;;;5105868;28;20772;-80
2020/12/07 02:00:04;;;;;;;9.27;6.93;;;2.80;99.90;;;;;;5105854;28;20219;-79
2020/12/07 02:02:30;;;;;;;8.17;6.27;;;2.80;99.90;;;;;;5106761;28;20187;-80
2020/12/07 02:04:55;;;;;;;7.27;5.63;;;2.70;99.90;;;;;;5107179;28;20190;-80
2020/12/07 02:07:21;;;;;;;9.13;7.43;;;2.80;99.90;;;;;;5105733;28;20198;-80
2020/12/07 02:09:46;;;;;;;9.83;6.57;;;2.70;99.90;;;;;;5105826;28;20412;-80
2020/12/07 02:12:12;;;;;;;9.30;6.30;;;2.80;99.90;;;;;;5106428;28;20249;-80
2020/12/07 02:14:38;;;;;;;9.53;7.03;;;2.80;99.90;;;;;;5105465;28;20567;-80
2020/12/07 02:17:03;;;;;;;7.23;4.97;;;2.80;99.90;;;;;;5104844;28;20566;-79
2020/12/07 02:19:29;;;;;;;8.40;5.90;;;2.80;99.90;;;;;;5104974;28;20200;-79
2020/12/07 02:21:54;;;;;;;9.60;7.33;;;2.80;99.90;;;;;;5108895;28;20188;-78
2020/12/07 02:24:20;;;;;;;8.20;6.30;;;2.90;99.90;;;;;;5109078;28;20187;-78
2020/12/07 02:26:45;;;;;;;9.80;7.23;;;2.90;99.90;;;;;;5109173;28;20191;-79
2020/12/07 02:29:11;;;;;;;8.20;6.67;;;2.90;99.90;;;;;;5110829;28;20216;-80
2020/12/07 02:31:38;;;;;;;8.03;6.07;;;2.90;99.90;;;;;;5108960;28;20196;-81
2020/12/07 02:34:04;;;;;;;11.17;6.87;;;2.90;99.90;;;;;;5109575;28;20253;-78
2020/12/07 02:36:29;;;;;;;10.43;7.57;;;2.90;99.90;;;;;;5109678;28;20214;-78
2020/12/07 02:38:55;;;;;;;9.43;7.23;;;2.90;99.90;;;;;;5109821;28;20588;-78
2020/12/07 02:41:21;;;;;;;9.23;7.00;;;3.00;99.90;;;;;;5109364;28;20200;-79
2020/12/07 02:43:46;;;;;;;8.60;6.50;;;3.10;99.90;;;;;;5109804;28;20187;-78
2020/12/07 02:46:12;;;;;;;7.87;5.83;;;3.20;99.90;;;;;;5108882;28;20181;-80
2020/12/07 02:48:38;;;;;;;9.83;6.97;;;3.10;99.90;;;;;;5110886;28;20753;-80
2020/12/07 02:51:03;;;;;;;8.77;6.97;;;3.10;99.90;;;;;;5109377;28;20192;-80
2020/12/07 02:53:29;;;;;;;10.27;7.63;;;3.10;99.90;;;;;;5111189;28;20188;-79
2020/12/07 02:55:54;;;;;;;9.67;6.13;;;3.10;99.90;;;;;;5110261;28;20187;-79
2020/12/07 02:58:20;;;;;;;8.37;7.13;;;3.20;99.90;;;;;;5110653;28;20291;-79
2020/12/07 03:00:46;;;;;;;8.53;7.13;;;3.20;99.90;;;;;;5110618;28;20183;-78
2020/12/07 03:03:11;;;;;;;10.30;7.33;;;3.40;99.90;;;;;;5110352;28;20196;-78
2020/12/07 03:05:37;;;;;;;8.67;7.63;;;3.40;99.90;;;;;;5109847;28;20200;-80
2020/12/07 03:08:02;;;;;;;10.50;7.40;;;3.50;99.90;;;;;;5110978;28;20214;-80
2020/12/07 03:10:28;;;;;;;10.60;7.87;;;3.60;99.90;;;;;;5108379;28;20252;-80
2020/12/07 03:12:53;;;;;;;11.73;7.87;;;3.60;99.90;;;;;;5109342;28;20184;-79
2020/12/07 03:15:19;;;;;;;9.43;8.30;;;3.70;99.90;;;;;;5108689;28;20199;-79
2020/12/07 03:17:45;;;;;;;8.93;6.97;;;3.80;99.90;;;;;;5108922;28;20211;-77
2020/12/07 03:20:10;;;;;;;11.03;7.40;;;3.80;99.90;;;;;;5109204;28;20688;-78
2020/12/07 03:22:36;;;;;;;8.00;6.53;;;3.80;99.90;;;;;;5108505;28;20192;-80
2020/12/07 03:25:02;;;;;;;11.33;9.13;;;3.80;99.90;;;;;;5110074;28;20176;-78
2020/12/07 03:27:27;;;;;;;12.30;8.33;;;3.90;99.90;;;;;;5108786;28;20192;-79
2020/12/07 03:29:53;;;;;;;9.43;7.20;;;4.00;99.90;;;;;;5108824;28;20204;-80
2020/12/07 03:32:18;;;;;;;10.63;7.93;;;4.10;99.90;;;;;;5108959;28;20326;-79
2020/12/07 03:34:44;;;;;;;10.80;7.60;;;4.10;99.90;;;;;;5108841;28;20188;-78
2020/12/07 03:37:09;;;;;;;10.97;6.27;;;4.20;99.90;;;;;;5107497;28;20188;-79
2020/12/07 03:39:38;;;;;;;8.60;6.73;;;4.20;99.90;;;;;;5109808;28;20258;-79
2020/12/07 03:42:04;;;;;;;9.57;6.40;;;4.40;99.90;;;;;;5108722;28;20176;-78
2020/12/07 03:44:29;;;;;;;8.67;6.13;;;4.50;99.90;;;;;;5108967;28;20184;-78
2020/12/07 03:46:55;;;;;;;9.90;7.80;;;4.70;99.90;;;;;;5107535;28;20184;-78
2020/12/07 03:49:20;;;;;;;9.30;7.13;;;4.80;99.90;;;;;;5106610;28;20204;-79
2020/12/07 03:51:46;;;;;;;8.37;6.77;;;4.90;99.90;;;;;;5107196;28;20226;-81
2020/12/07 03:54:12;;;;;;;8.07;6.53;;;5.00;99.90;;;;;;5108765;28;20211;-78
2020/12/07 03:56:37;;;;;;;8.57;6.83;;;5.10;99.90;;;;;;5107382;28;20652;-77
2020/12/07 03:59:03;;;;;;;9.17;6.60;;;5.00;99.90;;;;;;5106046;28;20584;-77
2020/12/07 04:01:29;;;;;;;7.93;6.37;;;5.10;99.90;;;;;;5108101;28;20181;-78
2020/12/07 04:04:00;;;;;;;8.00;6.43;;;5.10;99.90;;;;;;5108357;28;20194;-80
2020/12/07 04:06:29;;;;;;;11.23;7.63;;;5.10;99.90;;;;;;5106913;28;20180;-79
2020/12/07 04:08:55;;;;;;;8.60;6.17;;;5.00;99.90;;;;;;5108382;28;20208;-78
2020/12/07 04:11:20;;;;;;;10.23;7.07;;;5.10;99.90;;;;;;5107752;28;20190;-78
2020/12/07 04:13:46;;;;;;;13.63;8.60;;;5.10;99.90;;;;;;5108542;28;20191;-79
2020/12/07 04:16:12;;;;;;;10.90;7.17;;;5.00;99.90;;;;;;5106240;28;20195;-78
2020/12/07 04:18:37;;;;;;;11.83;7.67;;;4.90;99.90;;;;;;5108388;28;20215;-77
2020/12/07 04:21:03;;;;;;;9.67;7.57;;;4.90;99.90;;;;;;5108075;28;20184;-78
2020/12/07 04:23:30;;;;;;;10.23;8.10;;;4.90;99.90;;;;;;5106435;28;20192;-78
2020/12/07 04:25:56;;;;;;;9.93;6.63;;;4.90;99.90;;;;;;5107144;28;20181;-79
2020/12/07 04:28:22;;;;;;;8.23;6.23;;;5.00;99.90;;;;;;5107328;28;21209;-78
2020/12/07 04:30:48;;;;;;;8.90;7.27;;;5.00;99.90;;;;;;5108016;28;20179;-78
2020/12/07 04:33:14;;;;;;;13.30;7.30;;;5.10;99.90;;;;;;5107444;28;21130;-78
2020/12/07 04:35:39;;;;;;;7.87;5.67;;;5.20;99.90;;;;;;5105414;28;20183;-78
2020/12/07 04:38:05;;;;;;;10.30;7.97;;;5.20;99.90;;;;;;5105590;28;20210;-78
2020/12/07 04:40:30;;;;;;;12.77;7.53;;;5.20;99.90;;;;;;5105906;28;20797;-77
2020/12/07 04:42:57;;;;;;;10.40;7.73;;;5.20;99.90;;;;;;5105440;28;20671;-78
2020/12/07 04:45:23;;;;;;;8.77;6.17;;;5.30;99.90;;;;;;5106104;28;20184;-78
2020/12/07 04:47:51;;;;;;;10.63;7.37;;;5.30;99.90;;;;;;5107031;28;21089;-78
2020/12/07 04:50:17;;;;;;;10.07;7.43;;;5.30;99.90;;;;;;5105555;28;20227;-78
2020/12/07 04:52:44;;;;;;;9.43;6.93;;;5.40;99.90;;;;;;5107172;28;20553;-77
2020/12/07 04:55:09;;;;;;;8.77;6.27;;;5.40;99.90;;;;;;5106665;28;20563;-78
2020/12/07 04:57:37;;;;;;;9.60;7.10;;;5.40;99.90;;;;;;5106720;28;20203;-78
2020/12/07 05:00:05;;;;;;;8.37;7.37;;;5.50;99.90;;;;;;5122468;27;20286;-78
2020/12/07 05:02:35;;;;;;;9.73;8.23;;;5.40;99.90;;;;;;5104992;28;20271;-78
2020/12/07 05:05:00;;;;;;;10.53;6.73;;;5.40;99.90;;;;;;5105942;28;20176;-79
2020/12/07 05:07:26;;;;;;;8.67;6.70;;;5.40;99.90;;;;;;5106408;28;20408;-78
2020/12/07 05:09:52;;;;;;;12.97;7.73;;;5.40;99.90;;;;;;5105258;28;20265;-78
2020/12/07 05:12:21;;;;;;;10.27;7.50;;;5.40;99.90;;;;;;5106121;28;20187;-78
2020/12/07 05:14:47;;;;;;;9.67;7.40;;;5.40;99.90;;;;;;5106594;28;20180;-78
2020/12/07 05:17:16;;;;;;;10.60;7.77;;;5.40;99.90;;;;;;5104622;28;20202;-78
2020/12/07 05:19:45;;;;;;;12.27;7.87;;;5.30;99.90;;;;;;5106465;28;20619;-78
2020/12/07 05:22:17;;;;;;;10.50;6.60;;;5.30;99.90;;;;;;5105268;28;20191;-77
2020/12/07 05:24:48;;;;;;;9.37;6.77;;;5.30;99.90;;;;;;5105879;28;20180;-78
2020/12/07 05:27:17;;;;;;;9.13;6.93;;;5.30;99.90;;;;;;5105419;28;20180;-78
2020/12/07 05:29:57;;;;;;;13.87;8.70;;;5.40;99.90;;;;;;5105671;28;20200;-78
2020/12/07 05:32:23;;;;;;;9.90;6.60;;;5.40;99.90;;;;;;5105484;28;21169;-78
2020/12/07 05:34:49;;;;;;;12.20;9.03;;;5.30;99.90;;;;;;5103603;28;20188;-78
2020/12/07 05:37:17;;;;;;;8.37;6.70;;;5.40;99.90;;;;;;5103994;28;20183;-78
2020/12/07 05:39:42;;;;;;;8.30;6.80;;;5.30;99.90;;;;;;5103654;28;20235;-78
2020/12/07 05:42:10;;;;;;;8.37;6.77;;;5.40;99.90;;;;;;5105802;28;20208;-78
2020/12/07 05:44:40;;;;;;;12.30;8.43;;;5.50;99.90;;;;;;5105637;28;20188;-79
2020/12/07 05:47:08;;;;;;;11.73;8.20;;;5.50;99.90;;;;;;5104499;28;20658;-77
2020/12/07 05:49:34;;;;;;;10.50;7.30;;;5.50;99.90;;;;;;5106354;28;20235;-77
2020/12/07 05:52:06;;;;;;;10.07;7.83;;;5.60;99.90;;;;;;5105939;28;20214;-78
2020/12/07 05:54:33;;;;;;;8.97;6.90;;;5.70;99.90;;;;;;5104310;28;20188;-77
2020/12/07 05:57:09;;;;;;;9.57;6.67;;;5.70;99.90;;;;;;5105743;28;20214;-78
2020/12/07 05:59:41;;;;;;;10.17;7.23;;;5.70;99.90;;;;;;5106345;28;21062;-78
2020/12/07 06:02:09;;;;;;;9.63;6.63;;;5.60;99.90;;;;;;5106254;28;20265;-78
2020/12/07 06:04:35;;;;;;;11.07;8.07;;;5.70;99.90;;;;;;5104674;28;20189;-80
2020/12/07 06:07:02;;;;;;;8.77;7.40;;;5.70;99.90;;;;;;5103424;28;20184;-78
2020/12/07 06:09:30;;;;;;;10.40;7.97;;;5.70;99.90;;;;;;5106391;28;20952;-77
2020/12/07 06:12:21;;;;;;;9.70;7.67;;;5.70;99.90;;;;;;5105775;28;20213;-77
2020/12/07 06:14:48;;;;;;;12.03;7.47;;;5.70;99.90;;;;;;5101179;28;20196;-77
2020/12/07 06:17:23;;;;;;;9.73;7.40;;;5.70;99.90;;;;;;5105431;28;20184;-79
2020/12/07 06:19:52;;;;;;;10.77;7.10;;;5.70;99.90;;;;;;5103752;28;20212;-78
2020/12/07 06:22:21;;;;;;;10.13;6.77;;;5.70;99.90;;;;;;5104289;28;20233;-78
2020/12/07 06:24:48;;;;;;;11.10;8.60;;;5.70;99.90;;;;;;5106086;28;20528;-79
2020/12/07 06:27:15;;;;;;;10.23;8.10;;;5.70;99.90;;;;;;5105664;28;20176;-78
2020/12/07 06:30:03;;;;;;;8.00;5.73;;;5.70;99.90;;;;;;5104609;28;20242;-79
2020/12/07 06:32:52;;;;;;;12.17;7.30;;;5.70;99.90;;;;;;5105513;28;20183;-78
2020/12/07 06:35:19;;;;;;;8.80;6.43;;;5.60;99.90;;;;;;5105539;28;20176;-78
2020/12/07 06:37:47;;;;;;;8.67;6.70;;;5.60;99.90;;;;;;5105443;28;20199;-79
2020/12/07 06:40:14;;;;;;;7.73;6.33;;;5.60;99.90;;;;;;5105523;28;20238;-80
2020/12/07 06:42:42;;;;;;;10.43;7.03;;;5.60;99.90;;;;;;5105674;28;20180;-78
2020/12/07 06:45:10;;;;;;;11.20;7.80;;;5.60;99.90;;;;;;5105327;28;20233;-78
2020/12/07 06:47:39;;;;;;;9.93;6.13;;;5.50;99.90;;;;;;5104188;28;20188;-78
2020/12/07 06:50:14;;;;;;;12.77;7.87;;;5.50;99.90;;;;;;5105403;28;20865;-78
2020/12/07 06:52:42;;;;;;;9.17;6.43;;;5.50;99.90;;;;;;5104085;28;20552;-78
2020/12/07 06:55:12;;;;;;;11.33;8.00;;;5.50;99.90;;;;;;5103491;28;20194;-78
2020/12/07 06:57:46;;;;;;;11.13;7.70;;;5.40;99.90;;;;;;5103447;28;20690;-80
2020/12/07 07:00:13;;;;;;;11.53;8.23;;;5.40;99.90;;;;;;5105123;28;20210;-78
2020/12/07 07:02:47;;;;;;;8.87;6.27;;;5.40;99.90;;;;;;5105662;28;20176;-79
2020/12/07 07:05:18;;;;;;;7.53;5.43;;;5.40;99.90;;;;;;5103169;28;20180;-77
2020/12/07 07:07:44;;;;;;;11.47;6.33;;;5.40;99.90;;;;;;5105838;28;20184;-78
2020/12/07 07:10:11;;;;;;;9.30;6.33;;;5.40;99.90;;;;;;5108723;28;20242;-80
2020/12/07 07:12:38;;;;;;;9.00;6.30;;;5.40;99.90;;;;;;5124518;27;20439;-78
2020/12/07 07:15:05;;;;;;;8.07;5.90;;;5.40;99.90;;;;;;5107361;28;20195;-77
2020/12/07 07:17:34;;;;;;;9.67;7.07;;;5.50;99.90;;;;;;5108933;28;20228;-78
2020/12/07 07:20:03;;;;;;;9.07;6.07;;;5.50;99.90;;;;;;5108665;28;20200;-78
2020/12/07 07:22:29;;;;;;;8.97;6.47;;;5.50;99.90;;;;;;5108543;28;20178;-80
2020/12/07 07:25:04;;;;;;;8.43;5.30;;;5.60;99.90;;;;;;5107509;28;20275;-78
2020/12/07 07:30:16;;;;;;;7.50;6.23;;;5.40;99.90;;;;;;5109212;28;20223;-77
2020/12/07 07:32:44;;;;;;;10.13;6.53;;;5.50;99.90;;;;;;5108778;28;20184;-78
2020/12/07 07:35:11;;;;;;;12.90;6.80;;;5.50;99.90;;;;;;5107980;28;20221;-78
2020/12/07 07:37:38;;;;;;;9.60;6.70;;;5.50;99.90;;;;;;5108176;28;20269;-78
2020/12/07 07:40:12;;;;;;;11.00;8.10;;;5.50;99.90;;;;;;5109952;28;20208;-77
2020/12/07 07:42:51;;;;;;;8.70;6.87;;;5.50;99.90;;;;;;5107984;28;20805;-79
2020/12/07 07:45:32;;;;;;;9.03;6.90;;;5.60;99.90;;;;;;5107979;28;20180;-78
2020/12/07 08:15:54;;;;;;;25.87;15.27;;;5.20;99.90;;;;;;5108300;28;20188;-79
2020/12/07 08:18:33;;;;;;;15.40;10.00;;;5.10;99.90;;;;;;5106864;28;20200;-78
2020/12/07 08:21:01;;;;;;;14.37;8.67;;;5.10;99.90;;;;;;5106773;28;20828;-78
2020/12/07 08:23:29;;;;;;;15.37;10.27;;;5.10;99.90;;;;;;5108449;28;20211;-78
2020/12/07 08:25:56;;;;;;;9.37;6.87;;;5.00;99.90;;;;;;5106365;28;20189;-78
2020/12/07 08:28:23;;;;;;;10.93;7.10;;;5.10;99.90;;;;;;5108290;28;20215;-78
2020/12/07 08:31:00;;;;;;;13.73;7.97;;;5.00;99.90;;;;;;5106718;28;20271;-77
2020/12/07 08:33:27;;;;;;;15.67;8.83;;;5.00;99.90;;;;;;5106674;28;20264;-78
2020/12/07 08:35:57;;;;;;;12.13;7.83;;;5.00;99.90;;;;;;5106194;28;20246;-78
2020/12/07 08:38:33;;;;;;;5.00;3.53;;;5.10;99.90;;;;;;5106562;28;20212;-78
2020/12/07 08:41:04;;;;;;;5.83;3.90;;;5.30;99.90;;;;;;5106015;28;20200;-78
2020/12/07 08:43:30;;;;;;;5.30;3.53;;;5.20;99.90;;;;;;5107618;28;20177;-77
2020/12/07 08:45:56;;;;;;;6.57;3.50;;;5.20;99.90;;;;;;5105924;28;20186;-78
2020/12/07 08:48:21;;;;;;;7.47;4.97;;;5.20;99.90;;;;;;5107624;28;20233;-78
2020/12/07 08:50:47;;;;;;;4.00;3.37;;;5.20;99.90;;;;;;5106141;28;20203;-78
2020/12/07 08:53:12;;;;;;;2.77;2.10;;;5.30;99.90;;;;;;5106282;28;20529;-77
2020/12/07 08:55:38;;;;;;;3.13;2.30;;;5.50;99.90;;;;;;5104379;28;20765;-78
2020/12/07 08:58:03;;;;;;;3.13;2.73;;;5.60;99.90;;;;;;5106089;28;20238;-78
2020/12/07 09:00:29;;;;;;;1.80;1.67;;;5.60;99.90;;;;;;5103758;28;20256;-77
2020/12/07 09:02:54;;;;;;;3.27;1.93;;;5.60;99.90;;;;;;5105012;28;20191;-76
2020/12/07 09:05:20;;;;;;;1.70;1.60;;;5.60;99.90;;;;;;5101451;28;20271;-75
2020/12/07 09:07:45;;;;;;;2.20;1.57;;;5.60;99.90;;;;;;5104581;28;20268;-75
2020/12/07 09:10:11;;;;;;;4.07;2.47;;;5.60;99.90;;;;;;5106820;28;20234;-79
2020/12/07 09:12:37;;;;;;;3.93;2.30;;;5.60;99.90;;;;;;5105650;28;20180;-76
2020/12/07 09:15:03;;;;;;;3.80;1.70;;;5.60;99.90;;;;;;5106023;28;20183;-78
2020/12/07 09:17:29;;;;;;;4.20;2.37;;;5.70;99.90;;;;;;5107525;28;20194;-81
2020/12/07 09:19:54;;;;;;;2.83;2.10;;;5.70;99.90;;;;;;5107399;28;20208;-79
2020/12/07 09:22:20;;;;;;;2.47;1.70;;;5.70;99.90;;;;;;5107824;28;20781;-80
2020/12/07 09:24:45;;;;;;;2.77;2.33;;;5.70;99.90;;;;;;5106079;28;20557;-78
2020/12/07 09:27:11;;;;;;;3.67;2.13;;;5.70;99.90;;;;;;5107440;28;20623;-79
2020/12/07 09:29:36;;;;;;;2.43;2.23;;;5.70;99.90;;;;;;5105096;28;20295;-80
2020/12/07 09:32:02;;;;;;;3.27;2.23;;;5.70;99.90;;;;;;5105449;28;20192;-79
2020/12/07 09:34:28;;;;;;;2.17;1.80;;;5.70;99.90;;;;;;5106265;28;20198;-78
2020/12/07 09:36:53;;;;;;;2.20;1.70;;;5.80;99.90;;;;;;5106244;28;20650;-79
2020/12/07 09:39:19;;;;;;;2.23;1.80;;;5.90;99.90;;;;;;5107450;28;20671;-79
2020/12/07 09:41:44;;;;;;;2.60;1.90;;;5.90;99.90;;;;;;5105254;28;20188;-79
2020/12/07 09:44:10;;;;;;;1.60;1.43;;;6.10;99.90;;;;;;5105460;28;20188;-79
2020/12/07 09:46:36;;;;;;;1.83;1.60;;;6.30;99.90;;;;;;5104224;27;20179;-79
2020/12/07 09:49:01;;;;;;;1.83;1.57;;;6.40;99.90;;;;;;5106601;28;20552;-80
2020/12/07 09:51:27;;;;;;;1.63;1.50;;;6.40;99.90;;;;;;5106510;28;20222;-79
2020/12/07 09:53:52;;;;;;;1.77;1.60;;;6.50;99.90;;;;;;5105220;28;20320;-80
2020/12/07 09:56:18;;;;;;;2.10;1.53;;;6.60;99.90;;;;;;5106512;28;20685;-79
2020/12/07 09:58:43;;;;;;;1.30;1.20;;;6.60;99.90;;;;;;5105113;28;20628;-79
2020/12/07 10:01:09;;;;;;;1.13;0.93;;;6.70;99.90;;;;;;5105008;28;20197;-80
2020/12/07 10:03:35;;;;;;;1.03;0.93;;;6.70;99.90;;;;;;5105588;28;20180;-79
2020/12/07 10:06:00;;;;;;;2.60;2.40;;;6.80;99.90;;;;;;5106483;28;20257;-79
2020/12/07 10:08:26;;;;;;;2.37;1.60;;;6.80;99.90;;;;;;5104967;28;20230;-76
2020/12/07 10:10:51;;;;;;;1.93;1.40;;;6.70;99.90;;;;;;5103607;28;21359;-80
2020/12/07 10:13:17;;;;;;;2.30;1.00;;;6.70;99.90;;;;;;5105410;28;20812;-78
2020/12/07 10:15:42;;;;;;;1.40;1.30;;;6.70;99.90;;;;;;5104061;28;20682;-78
2020/12/07 10:18:08;;;;;;;1.10;1.00;;;6.70;99.90;;;;;;5105556;28;20208;-79
2020/12/07 10:20:34;;;;;;;0.97;0.97;;;6.70;99.90;;;;;;5104341;28;20207;-79
2020/12/07 10:22:59;;;;;;;1.10;1.00;;;6.40;99.90;;;;;;5105978;28;20381;-78
2020/12/07 10:25:25;;;;;;;0.90;0.87;;;6.40;99.90;;;;;;5105970;28;20180;-79
2020/12/07 10:27:51;;;;;;;1.17;1.10;;;6.30;99.90;;;;;;5104614;28;20190;-78
2020/12/07 10:30:17;;;;;;;1.77;1.40;;;6.20;99.90;;;;;;5105982;28;20196;-78
2020/12/07 10:32:43;;;;;;;1.50;1.40;;;6.10;99.90;;;;;;5104061;28;20187;-78
2020/12/07 10:35:08;;;;;;;1.50;1.40;;;6.10;99.90;;;;;;5104055;28;20181;-78
2020/12/07 10:37:34;;;;;;;1.03;0.93;;;6.10;99.90;;;;;;5102593;28;20241;-79
2020/12/07 10:39:59;;;;;;;0.90;0.90;;;6.00;99.90;;;;;;5104867;28;20318;-79
2020/12/07 10:42:25;;;;;;;0.80;0.80;;;6.10;99.90;;;;;;5113768;28;20283;-77
2020/12/07 10:44:51;;;;;;;1.07;0.97;;;6.00;99.90;;;;;;5114461;28;20184;-78
2020/12/07 10:47:16;;;;;;;1.10;1.00;;;6.00;99.90;;;;;;5108788;28;20192;-79
2020/12/07 10:49:42;;;;;;;1.10;1.00;;;5.90;99.90;;;;;;5106447;27;20222;-78
2020/12/07 10:52:08;;;;;;;1.00;0.90;;;5.90;99.90;;;;;;5106789;28;20196;-79
2020/12/07 10:54:33;;;;;;;1.17;1.10;;;6.00;99.90;;;;;;5107063;27;20590;-79
2020/12/07 10:56:59;;;;;;;1.50;1.00;;;5.90;99.90;;;;;;5107325;28;20673;-79
2020/12/07 10:59:24;;;;;;;1.40;1.30;;;5.90;99.90;;;;;;5108331;28;20790;-78
2020/12/07 11:01:55;;;;;;;0.93;0.93;;;5.80;99.90;;;;;;5107805;28;20650;-79
2020/12/07 11:04:20;;;;;;;0.90;0.90;;;5.90;99.90;;;;;;5109572;28;20322;-80
2020/12/07 11:06:48;;;;;;;1.57;1.43;;;6.00;99.90;;;;;;5109842;28;20259;-80
2020/12/07 11:09:17;;;;;;;1.50;1.40;;;6.00;99.90;;;;;;5109771;28;20200;-79
2020/12/07 11:11:46;;;;;;;1.40;1.13;;;6.10;99.90;;;;;;5107588;28;20226;-81
2020/12/07 11:14:11;;;;;;;1.20;1.10;;;6.10;99.90;;;;;;5108318;28;20275;-81
2020/12/07 11:16:37;;;;;;;1.30;1.20;;;6.10;99.90;;;;;;5108326;28;20259;-81
2020/12/07 11:19:02;;;;;;;2.20;1.80;;;6.10;99.90;;;;;;5108971;28;20577;-79
2020/12/07 11:21:28;;;;;;;1.87;1.77;;;6.10;99.90;;;;;;5106783;28;20569;-79
2020/12/07 11:23:53;;;;;;;1.20;1.10;;;6.10;99.90;;;;;;5109270;28;20216;-78
2020/12/07 11:26:19;;;;;;;1.47;1.33;;;6.10;99.90;;;;;;5107804;28;20187;-79
2020/12/07 11:28:46;;;;;;;0.83;0.83;;;6.20;99.90;;;;;;5107660;28;20296;-79
2020/12/07 11:31:16;;;;;;;1.33;1.13;;;6.20;99.90;;;;;;5107223;28;20328;-79
2020/12/07 11:33:42;;;;;;;1.43;1.33;;;6.20;99.90;;;;;;5109087;28;20207;-80
2020/12/07 11:36:08;;;;;;;0.97;0.90;;;6.30;99.90;;;;;;5107636;28;20188;-79
2020/12/07 11:38:38;;;;;;;1.40;1.30;;;6.20;99.90;;;;;;5107536;28;20261;-79
2020/12/07 11:41:22;;;;;;;0.90;0.80;;;6.30;99.90;;;;;;5107416;28;20199;-79
2020/12/07 11:43:55;;;;;;;1.43;1.30;;;6.50;99.90;;;;;;5107950;28;20215;-78
2020/12/07 11:46:31;;;;;;;1.27;1.17;;;6.90;99.90;;;;;;5108758;28;20658;-79
2020/12/07 11:48:57;;;;;;;1.50;1.33;;;6.90;99.90;;;;;;5107640;28;20252;-79
2020/12/07 11:51:27;;;;;;;1.47;1.33;;;7.00;99.90;;;;;;5109272;28;20717;-79
2020/12/07 11:53:56;;;;;;;2.67;2.37;;;7.00;99.90;;;;;;5107717;28;20188;-85
2020/12/07 11:56:29;;;;;;;1.30;1.20;;;7.00;99.90;;;;;;5107407;28;20188;-81
2020/12/07 11:58:55;;;;;;;1.27;1.10;;;7.10;99.90;;;;;;5123767;27;20216;-78
2020/12/07 12:01:21;;;;;;;1.83;1.50;;;7.00;99.90;;;;;;5108071;28;20183;-80
2020/12/07 12:03:46;;;;;;;1.10;1.00;;;7.20;99.90;;;;;;5107048;28;20186;-78
2020/12/07 12:06:24;;;;;;;1.20;1.10;;;7.20;99.90;;;;;;5109647;28;20183;-80
2020/12/07 12:08:51;;;;;;;1.27;0.90;;;7.10;99.90;;;;;;5107942;27;20230;-79
2020/12/07 12:11:17;;;;;;;0.90;0.90;;;6.90;99.90;;;;;;5106623;27;20689;-77
2020/12/07 12:13:43;;;;;;;2.80;1.60;;;6.80;99.90;;;;;;5107453;28;20233;-78
2020/12/07 12:16:09;;;;;;;2.00;1.77;;;6.80;99.90;;;;;;5107325;28;20179;-77
2020/12/07 12:18:34;;;;;;;2.10;1.90;;;6.80;99.90;;;;;;5123868;27;20208;-81
2020/12/07 12:21:00;;;;;;;2.17;1.70;;;6.80;99.90;;;;;;5107541;28;20804;-78
2020/12/07 12:23:25;;;;;;;1.93;1.73;;;6.80;99.90;;;;;;5106565;28;20190;-78
2020/12/07 12:25:51;;;;;;;2.77;2.27;;;6.80;99.90;;;;;;5106716;28;20168;-78
2020/12/07 12:28:17;;;;;;;3.33;2.00;;;6.70;99.90;;;;;;5105752;28;20184;-79
2020/12/07 12:30:42;;;;;;;1.20;1.10;;;6.70;99.90;;;;;;5107833;28;20191;-79
2020/12/07 12:33:08;;;;;;;3.23;2.07;;;6.60;99.90;;;;;;5107586;28;20190;-78
2020/12/07 12:35:34;;;;;;;2.90;1.63;;;6.50;99.90;;;;;;5106857;28;20226;-80
2020/12/07 12:37:59;;;;;;;3.63;1.80;;;6.50;99.90;;;;;;5106133;28;20203;-79
2020/12/07 12:40:25;;;;;;;3.27;1.87;;;6.50;99.90;;;;;;5106064;28;20231;-78
2020/12/07 12:42:52;;;;;;;1.73;1.40;;;6.50;99.90;;;;;;5107851;28;20183;-76
2020/12/07 12:45:17;;;;;;;1.40;1.30;;;6.50;99.90;;;;;;5107671;28;20654;-80
2020/12/07 12:47:43;;;;;;;1.50;1.40;;;6.50;99.90;;;;;;5107540;28;20180;-79
2020/12/07 12:50:09;;;;;;;0.70;0.70;;;6.60;99.90;;;;;;5108273;28;20211;-79
2020/12/07 12:52:35;;;;;;;1.10;1.00;;;6.60;99.90;;;;;;5105594;28;20761;-78
2020/12/07 12:55:01;;;;;;;1.07;1.00;;;6.50;99.90;;;;;;5106922;28;20191;-78
2020/12/07 12:57:27;;;;;;;1.40;1.30;;;6.50;99.90;;;;;;5107418;28;20704;-79
2020/12/07 12:59:53;;;;;;;0.80;0.80;;;6.40;99.90;;;;;;5106772;28;20295;-80
2020/12/07 13:02:18;;;;;;;0.87;0.80;;;6.40;99.90;;;;;;5106928;28;20176;-78
2020/12/07 13:04:44;;;;;;;1.00;1.00;;;6.40;99.90;;;;;;5104565;28;20242;-79
2020/12/07 13:07:10;;;;;;;1.03;1.00;;;6.40;99.90;;;;;;5105263;28;20785;-78
2020/12/07 13:09:36;;;;;;;0.73;0.73;;;6.40;99.90;;;;;;5105545;28;20215;-78
2020/12/07 13:12:02;;;;;;;0.80;0.70;;;6.40;99.90;;;;;;5106914;28;20184;-78
2020/12/07 13:14:28;;;;;;;1.30;0.80;;;6.40;99.90;;;;;;5105179;28;20562;-78
2020/12/07 13:17:09;;;;;;;0.70;0.70;;;6.40;99.90;;;;;;5105599;28;20187;-78
2020/12/07 13:19:34;;;;;;;0.70;0.70;;;6.30;99.90;;;;;;5103877;28;20242;-79
2020/12/07 13:24:47;;;;;;;0.70;0.70;;;6.50;99.90;;;;;;5106720;28;20207;-79
2020/12/07 13:30:11;;;;;;;0.80;0.80;;;6.40;99.90;;;;;;5081519;28;21265;-78